Time;durP1;ratioP1;P1;durP2;ratioP2;P2;SDS_P1;SDS_P2;PMS_P1;PMS_P2;Temp;Humidity;BMP_temperature;BMP_pressure;BME280_temperature;BME280_humidity;BME280_pressure;Samples;Min_cycle;Max_cycle;Signal;HPM_P1;HPM_P2
2022/04/14 00:00:06;;;;;;;34.28;20.75;;;;;;;10.37;100.00;101973.34;2614059;36;20122;-51
2022/04/14 00:02:34;;;;;;;31.15;19.60;;;;;;;10.44;100.00;101976.47;2612547;31;20035;-51
2022/04/14 00:05:06;;;;;;;33.10;21.80;;;;;;;10.47;100.00;101970.88;2613983;36;20118;-49
2022/04/14 00:07:34;;;;;;;33.55;22.55;;;;;;;10.34;100.00;101963.63;2612830;36;20054;-51
2022/04/14 00:10:02;;;;;;;39.50;22.40;;;;;;;10.42;100.00;101962.25;2614288;36;20582;-49
2022/04/14 00:12:31;;;;;;;34.60;22.10;;;;;;;10.42;100.00;101968.47;2612861;36;20039;-51
2022/04/14 00:15:00;;;;;;;31.67;21.38;;;;;;;10.36;100.00;101968.91;2614130;36;20121;-53
2022/04/14 00:17:29;;;;;;;40.80;24.80;;;;;;;10.43;100.00;101967.50;2613242;36;20126;-50
2022/04/14 00:19:57;;;;;;;42.17;24.98;;;;;;;10.42;100.00;101952.31;2613689;36;20054;-52
2022/04/14 00:22:28;;;;;;;38.30;24.48;;;;;;;10.42;100.00;101957.72;2613610;36;20534;-52
2022/04/14 00:24:56;;;;;;;36.15;23.92;;;;;;;10.44;100.00;101953.09;2614126;36;20146;-50
2022/04/14 00:27:24;;;;;;;38.70;24.60;;;;;;;10.39;100.00;101949.84;2614012;36;20073;-54
2022/04/14 00:29:53;;;;;;;37.15;24.23;;;;;;;10.30;100.00;101950.47;2613482;36;20134;-50
2022/04/14 00:32:21;;;;;;;39.67;24.08;;;;;;;10.14;100.00;101948.88;2613488;36;20122;-53
2022/04/14 00:34:49;;;;;;;42.10;26.70;;;;;;;10.32;100.00;101945.84;2613046;36;20149;-52
2022/04/14 00:37:17;;;;;;;41.33;26.20;;;;;;;10.22;100.00;101945.63;2613389;31;20137;-48
2022/04/14 00:39:49;;;;;;;40.95;27.23;;;;;;;10.27;100.00;101942.63;2613645;36;20158;-52
2022/04/14 00:42:17;;;;;;;45.40;29.33;;;;;;;10.38;100.00;101944.59;2613485;36;20041;-52
2022/04/14 00:44:46;;;;;;;45.35;27.55;;;;;;;10.28;100.00;101944.34;2612177;36;20606;-53
2022/04/14 00:47:15;;;;;;;47.60;27.58;;;;;;;10.20;100.00;101936.78;2613625;36;20122;-55
2022/04/14 00:49:44;;;;;;;47.58;29.40;;;;;;;10.27;100.00;101946.16;2613560;36;20129;-52
2022/04/14 00:52:12;;;;;;;46.22;28.85;;;;;;;10.12;100.00;101933.81;2612477;31;20122;-49
2022/04/14 00:54:40;;;;;;;47.08;29.35;;;;;;;10.09;100.00;101937.56;2614197;36;20590;-50
2022/04/14 00:57:11;;;;;;;44.70;26.17;;;;;;;10.02;100.00;101933.56;2615239;31;20503;-49
2022/04/14 00:59:39;;;;;;;47.05;28.05;;;;;;;10.08;100.00;101938.50;2614351;36;20483;-51
2022/04/14 01:02:08;;;;;;;49.25;28.30;;;;;;;10.08;100.00;101933.13;2612521;36;20093;-49
2022/04/14 01:04:37;;;;;;;43.72;27.38;;;;;;;10.04;100.00;101941.53;2614585;36;20141;-55
2022/04/14 01:07:08;;;;;;;49.28;28.38;;;;;;;9.93;100.00;101935.06;2613347;36;20042;-52
2022/04/14 01:09:37;;;;;;;46.28;29.00;;;;;;;9.97;100.00;101933.88;2614599;36;20041;-52
2022/04/14 01:12:06;;;;;;;45.50;28.42;;;;;;;9.86;100.00;101946.34;2613482;31;20030;-53
2022/04/14 01:14:39;;;;;;;44.78;26.27;;;;;;;9.86;100.00;101941.81;2614586;36;20583;-50
2022/04/14 01:17:09;;;;;;;45.50;25.95;;;;;;;9.79;100.00;101933.31;2614977;31;20438;-50
2022/04/14 01:19:38;;;;;;;48.13;29.27;;;;;;;9.91;100.00;101931.63;2614489;36;20026;-47
2022/04/14 01:22:11;;;;;;;49.88;30.98;;;;;;;9.85;100.00;101941.94;2613487;36;20162;-53
2022/04/14 01:24:42;;;;;;;49.58;28.95;;;;;;;9.82;100.00;101943.88;2615066;36;20084;-52
2022/04/14 01:27:11;;;;;;;46.47;28.70;;;;;;;9.80;100.00;101955.69;2614294;36;20137;-51
2022/04/14 01:29:39;;;;;;;43.55;28.10;;;;;;;9.83;100.00;101955.47;2615123;36;20180;-51
2022/04/14 01:32:09;;;;;;;44.15;27.40;;;;;;;9.74;100.00;101945.34;2613458;36;20643;-51
2022/04/14 01:34:37;;;;;;;46.22;28.70;;;;;;;9.75;100.00;101957.84;2613522;36;20558;-49
2022/04/14 01:37:06;;;;;;;50.50;28.93;;;;;;;9.72;100.00;101952.69;2613640;36;20051;-50
2022/04/14 01:39:34;;;;;;;44.88;27.42;;;;;;;9.67;100.00;101960.16;2615243;36;20502;-50
2022/04/14 01:42:06;;;;;;;52.78;30.00;;;;;;;9.76;100.00;101963.13;2614540;36;20082;-49
2022/04/14 01:44:34;;;;;;;50.10;28.50;;;;;;;9.72;100.00;101966.97;2614789;36;20069;-50
2022/04/14 01:47:03;;;;;;;43.03;27.43;;;;;;;9.63;100.00;101959.53;2614713;36;20031;-50
2022/04/14 01:49:32;;;;;;;44.80;28.15;;;;;;;9.61;100.00;101961.44;2613882;36;20451;-50
2022/04/14 01:52:00;;;;;;;46.67;28.33;;;;;;;9.65;100.00;101968.34;2614291;36;20141;-51
2022/04/14 01:54:28;;;;;;;49.88;29.80;;;;;;;9.61;100.00;101964.13;2613714;36;21174;-50
2022/04/14 01:56:56;;;;;;;45.70;28.00;;;;;;;9.51;100.00;101965.69;2614721;36;20182;-52
2022/04/14 01:59:27;;;;;;;47.50;27.65;;;;;;;9.60;100.00;101962.44;2613670;36;20118;-51
2022/04/14 02:01:55;;;;;;;54.65;30.58;;;;;;;9.65;100.00;101960.28;2614279;36;20157;-53
2022/04/14 02:04:23;;;;;;;58.42;33.47;;;;;;;9.67;100.00;101963.72;2613770;36;20150;-54
2022/04/14 02:06:51;;;;;;;58.05;33.47;;;;;;;9.62;100.00;101973.94;2614131;36;20086;-50
2022/04/14 02:09:20;;;;;;;56.50;31.02;;;;;;;9.50;100.00;101974.75;2614256;36;20571;-53
2022/04/14 02:11:48;;;;;;;57.38;33.58;;;;;;;9.51;100.00;101977.34;2613839;36;20225;-49
2022/04/14 02:14:16;;;;;;;57.03;34.33;;;;;;;9.54;100.00;101976.25;2613843;31;20158;-50
2022/04/14 02:16:47;;;;;;;66.45;34.83;;;;;;;9.43;100.00;101969.75;2614617;36;20197;-51
2022/04/14 02:19:15;;;;;;;53.13;33.97;;;;;;;9.40;100.00;101971.81;2613983;36;20162;-48
2022/04/14 02:21:43;;;;;;;53.08;31.20;;;;;;;9.36;100.00;101975.66;2612685;36;20141;-50
2022/04/14 02:24:11;;;;;;;54.08;32.42;;;;;;;9.24;100.00;101974.63;2614370;36;20038;-51
2022/04/14 02:26:39;;;;;;;54.42;33.58;;;;;;;9.20;100.00;101970.41;2614179;31;20174;-53
2022/04/14 02:29:08;;;;;;;49.08;31.27;;;;;;;9.19;100.00;101968.72;2614638;36;20154;-49
2022/04/14 02:31:36;;;;;;;60.88;34.88;;;;;;;9.18;100.00;101975.03;2612992;36;20150;-52
2022/04/14 02:34:06;;;;;;;56.40;32.20;;;;;;;9.09;100.00;101976.50;2613916;36;20042;-49
2022/04/14 02:36:35;;;;;;;58.33;33.78;;;;;;;9.07;100.00;101976.59;2613752;36;20722;-49
2022/04/14 02:39:03;;;;;;;58.58;33.15;;;;;;;9.03;100.00;101972.38;2614452;36;20130;-52
2022/04/14 02:41:31;;;;;;;63.97;35.90;;;;;;;9.04;100.00;101968.72;2613712;36;20174;-52
2022/04/14 02:43:59;;;;;;;67.38;34.90;;;;;;;8.98;100.00;101969.13;2614564;31;20054;-50
2022/04/14 02:46:27;;;;;;;59.30;33.47;;;;;;;9.03;100.00;101964.31;2613074;36;20567;-52
2022/04/14 02:48:56;;;;;;;63.30;35.40;;;;;;;8.96;100.00;101980.94;2614400;36;20126;-49
2022/04/14 02:51:27;;;;;;;61.63;35.33;;;;;;;8.93;100.00;101968.53;2614060;31;20453;-46
2022/04/14 02:53:55;;;;;;;69.03;38.55;;;;;;;8.92;100.00;101970.38;2614007;36;20494;-52
2022/04/14 02:56:23;;;;;;;70.40;38.03;;;;;;;8.91;100.00;101979.38;2614362;36;22891;-51
2022/04/14 02:58:51;;;;;;;65.35;37.55;;;;;;;8.85;100.00;101984.28;2613789;36;20149;-46
2022/04/14 03:01:19;;;;;;;62.17;34.40;;;;;;;8.86;100.00;101978.84;2614978;36;20122;-49
2022/04/14 03:03:47;;;;;;;62.03;36.30;;;;;;;8.73;100.00;101986.78;2613784;36;20655;-49
2022/04/14 03:06:15;;;;;;;65.93;36.45;;;;;;;8.76;100.00;101991.97;2613534;31;20142;-52
2022/04/14 03:08:46;;;;;;;61.63;35.13;;;;;;;8.69;100.00;101993.31;2613708;36;20130;-54
2022/04/14 03:11:15;;;;;;;62.92;35.63;;;;;;;8.68;100.00;101986.19;2613943;36;20031;-53
2022/04/14 03:13:43;;;;;;;55.73;32.40;;;;;;;8.54;100.00;101980.84;2613662;36;20061;-53
2022/04/14 03:16:13;;;;;;;62.78;36.92;;;;;;;8.57;100.00;101992.25;2613549;36;20681;-49
2022/04/14 03:18:41;;;;;;;64.60;35.90;;;;;;;8.59;100.00;101986.78;2613928;36;20030;-47
2022/04/14 03:21:11;;;;;;;58.88;34.10;;;;;;;8.48;100.00;101981.22;2613661;36;20157;-51
2022/04/14 03:23:39;;;;;;;60.50;35.42;;;;;;;8.42;100.00;101985.09;2613921;36;20439;-51
2022/04/14 03:26:11;;;;;;;59.13;35.17;;;;;;;8.41;100.00;101978.88;2613488;36;20122;-50
2022/04/14 03:28:39;;;;;;;68.93;37.70;;;;;;;8.39;100.00;101983.50;2613993;36;20041;-49
2022/04/14 03:31:07;;;;;;;69.80;36.28;;;;;;;8.35;100.00;101976.59;2612938;36;20046;-52
2022/04/14 03:33:35;;;;;;;74.72;39.30;;;;;;;8.35;100.00;101981.94;2613776;36;20129;-49
2022/04/14 03:36:03;;;;;;;74.22;40.08;;;;;;;8.38;100.00;101975.53;2613112;36;20556;-50
2022/04/14 03:38:31;;;;;;;74.00;39.75;;;;;;;8.42;100.00;101983.28;2612157;31;20780;-52
2022/04/14 03:41:04;;;;;;;69.93;39.97;;;;;;;8.44;100.00;101979.66;2613453;36;20114;-53
2022/04/14 03:43:35;;;;;;;67.28;37.88;;;;;;;8.47;100.00;101984.88;2614495;36;20041;-47
2022/04/14 03:46:04;;;;;;;80.15;41.42;;;;;;;8.51;100.00;101981.03;2613981;36;20122;-51
2022/04/14 03:48:32;;;;;;;69.63;38.38;;;;;;;8.37;100.00;101974.66;2614185;36;20529;-52
2022/04/14 03:51:01;;;;;;;68.55;39.72;;;;;;;8.33;100.00;101970.47;2612871;36;20544;-52
2022/04/14 03:53:29;;;;;;;75.78;40.40;;;;;;;8.32;100.00;101981.25;2613784;36;20122;-50
2022/04/14 03:55:57;;;;;;;61.53;38.40;;;;;;;8.30;100.00;101978.66;2614182;36;20154;-54
2022/04/14 03:58:25;;;;;;;68.85;40.10;;;;;;;8.21;100.00;101979.25;2613593;36;20031;-49
2022/04/14 04:00:59;;;;;;;68.47;38.72;;;;;;;8.17;100.00;101986.63;2613129;36;20141;-55
2022/04/14 04:03:28;;;;;;;66.30;36.50;;;;;;;8.19;100.00;101983.84;2614231;36;20122;-54
2022/04/14 04:05:57;;;;;;;67.65;38.58;;;;;;;8.28;100.00;101985.97;2613575;36;20550;-51
2022/04/14 04:08:25;;;;;;;66.63;38.72;;;;;;;8.26;100.00;101987.88;2613283;36;20151;-50
2022/04/14 04:10:53;;;;;;;75.68;42.00;;;;;;;8.28;100.00;101996.69;2613435;36;20150;-51
2022/04/14 04:13:21;;;;;;;74.63;42.28;;;;;;;8.15;100.00;101984.97;2614322;36;20122;-53
2022/04/14 04:15:50;;;;;;;81.30;44.85;;;;;;;8.33;100.00;101983.00;2614160;36;20130;-48
2022/04/14 04:18:20;;;;;;;80.53;42.63;;;;;;;8.41;100.00;101997.66;2612905;36;20038;-50
2022/04/14 04:20:49;;;;;;;69.97;41.45;;;;;;;8.29;100.00;101986.81;2614083;36;20604;-51
2022/04/14 04:23:17;;;;;;;83.55;44.63;;;;;;;8.25;100.00;101986.16;2613355;36;20204;-50
2022/04/14 04:25:45;;;;;;;86.40;45.17;;;;;;;8.25;100.00;101994.19;2614488;36;20706;-52
2022/04/14 04:28:13;;;;;;;85.00;45.42;;;;;;;8.26;100.00;101990.56;2613214;36;20038;-49
2022/04/14 04:30:41;;;;;;;85.60;44.03;;;;;;;8.23;100.00;101993.44;2613623;36;20146;-56
2022/04/14 04:33:09;;;;;;;82.15;45.60;;;;;;;8.19;100.00;101997.25;2613765;36;20229;-52
2022/04/14 04:35:40;;;;;;;84.93;44.75;;;;;;;8.19;100.00;101983.84;2613561;31;20646;-50
2022/04/14 04:38:08;;;;;;;79.28;44.08;;;;;;;8.09;100.00;101996.06;2614066;31;20500;-49
2022/04/14 04:40:40;;;;;;;87.28;46.78;;;;;;;8.16;100.00;102003.66;2614822;54;20178;-50
2022/04/14 04:43:08;;;;;;;80.20;46.40;;;;;;;8.25;100.00;102010.28;2614321;36;20589;-52
2022/04/14 04:45:40;;;;;;;75.97;43.07;;;;;;;8.15;100.00;102007.28;2613068;36;20034;-50
2022/04/14 04:48:08;;;;;;;88.20;48.03;;;;;;;8.19;100.00;102002.63;2615194;36;20622;-54
2022/04/14 04:50:39;;;;;;;89.15;46.13;;;;;;;8.26;100.00;102009.34;2613801;36;20126;-50
2022/04/14 04:53:07;;;;;;;89.07;47.33;;;;;;;8.20;100.00;102010.56;2614504;36;20173;-51
2022/04/14 04:55:35;;;;;;;80.15;45.35;;;;;;;8.15;100.00;102018.00;2613873;36;20066;-52
2022/04/14 04:58:04;;;;;;;71.22;43.35;;;;;;;8.03;100.00;102016.94;2614646;36;20174;-50
2022/04/14 05:00:32;;;;;;;83.93;45.53;;;;;;;8.04;100.00;102017.81;2613868;36;20146;-51
2022/04/14 05:03:01;;;;;;;78.50;45.10;;;;;;;8.06;100.00;102023.94;2614689;36;20562;-51
2022/04/14 05:05:29;;;;;;;78.95;43.85;;;;;;;8.03;100.00;102024.97;2613507;36;20166;-48
2022/04/14 05:08:00;;;;;;;76.05;44.55;;;;;;;8.00;100.00;102025.16;2615355;31;20479;-49
2022/04/14 05:10:28;;;;;;;76.60;45.45;;;;;;;8.00;100.00;102018.94;2613950;36;20102;-51
2022/04/14 05:12:56;;;;;;;80.60;43.65;;;;;;;8.05;100.00;102022.19;2615107;31;20085;-49
2022/04/14 05:15:24;;;;;;;79.63;43.60;;;;;;;8.03;100.00;102024.97;2612735;36;20227;-50
2022/04/14 05:17:53;;;;;;;80.80;46.22;;;;;;;8.06;100.00;102018.56;2612813;36;20038;-49
2022/04/14 05:20:21;;;;;;;80.68;46.17;;;;;;;8.18;100.00;102022.34;2613962;31;20158;-48
2022/04/14 05:22:49;;;;;;;82.30;46.63;;;;;;;8.21;100.00;102028.38;2614072;36;20141;-51
2022/04/14 05:25:20;;;;;;;82.63;47.38;;;;;;;8.34;100.00;102033.84;2612768;36;20058;-54
2022/04/14 05:27:48;;;;;;;79.78;45.20;;;;;;;8.16;100.00;102025.09;2614722;36;20126;-51
2022/04/14 05:30:17;;;;;;;83.18;46.35;;;;;;;8.28;100.00;102034.25;2612100;36;20129;-49
2022/04/14 05:32:45;;;;;;;90.25;49.33;;;;;;;8.35;100.00;102037.44;2614799;36;20040;-49
2022/04/14 05:35:13;;;;;;;88.03;48.28;;;;;;;8.51;100.00;102034.69;2614351;36;20628;-50
2022/04/14 05:37:41;;;;;;;90.53;49.45;;;;;;;8.63;100.00;102044.69;2612386;36;20038;-52
2022/04/14 05:40:11;;;;;;;79.60;47.15;;;;;;;8.70;100.00;102040.66;2613437;36;20023;-51
2022/04/14 05:42:45;;;;;;;72.60;43.08;;;;;;;8.64;100.00;102035.66;2614909;36;20038;-54
2022/04/14 05:45:15;;;;;;;85.28;48.03;;;;;;;8.81;100.00;102048.03;2615162;36;20765;-51
2022/04/14 05:47:43;;;;;;;;;;;;;;;8.91;100.00;102045.66;2606748;31;20034;-51
2022/04/14 05:50:12;;;;;;;85.18;49.67;;;;;;;9.00;100.00;102042.38;2614691;36;20017;-53
2022/04/14 05:52:41;;;;;;;81.25;46.78;;;;;;;8.99;100.00;102048.72;2613239;36;20039;-53
2022/04/14 05:55:10;;;;;;;88.25;47.83;;;;;;;9.17;100.00;102053.88;2612407;36;20141;-55
2022/04/14 05:57:38;;;;;;;80.93;47.15;;;;;;;9.37;100.00;102045.41;2614269;36;20077;-54
2022/04/14 06:00:13;;;;;;;80.28;43.78;;;;;;;9.47;100.00;102057.28;2614694;31;20515;-52
2022/04/14 06:02:42;;;;;;;83.45;47.58;;;;;;;9.71;100.00;102059.31;2613299;36;20023;-51
2022/04/14 06:05:12;;;;;;;71.93;45.15;;;;;;;10.08;100.00;102061.41;2613797;36;20030;-53
2022/04/14 06:07:40;;;;;;;73.22;43.42;;;;;;;9.93;100.00;102055.22;2614045;36;20034;-49
2022/04/14 06:10:09;;;;;;;73.35;41.10;;;;;;;9.93;100.00;102052.53;2614031;36;20046;-54
2022/04/14 06:12:37;;;;;;;75.05;41.10;;;;;;;9.96;100.00;102060.41;2614353;36;20062;-53
2022/04/14 06:15:06;;;;;;;65.53;39.40;;;;;;;10.15;100.00;102074.31;2613549;36;20149;-53
2022/04/14 06:17:37;;;;;;;60.60;37.17;;;;;;;10.18;100.00;102063.34;2614581;36;20129;-52
2022/04/14 06:20:06;;;;;;;60.47;37.35;;;;;;;10.31;100.00;102058.00;2614134;36;20031;-54
2022/04/14 06:22:38;;;;;;;;;;;;;;;10.20;100.00;102048.94;2614190;36;20038;-54
2022/04/14 06:25:12;;;;;;;57.50;37.90;;;;;;;10.27;100.00;102050.25;2614785;36;19943;-54
2022/04/14 06:27:41;;;;;;;56.08;36.60;;;;;;;10.37;100.00;102046.00;2614187;36;20549;-48
2022/04/14 06:30:11;;;;;;;58.53;37.67;;;;;;;10.62;100.00;102049.69;2614361;36;20026;-53
2022/04/14 06:32:42;;;;;;;55.72;36.33;;;;;;;10.88;100.00;102047.84;2613895;31;20146;-55
2022/04/14 06:35:15;;;;;;;55.83;36.00;;;;;;;11.10;100.00;102054.38;2612919;36;20126;-54
2022/04/14 06:37:43;;;;;;;52.47;34.90;;;;;;;11.27;100.00;102055.88;2611800;36;20038;-51
2022/04/14 06:40:13;;;;;;;48.83;34.05;;;;;;;11.33;100.00;102061.66;2614573;36;20570;-54
2022/04/14 06:42:41;;;;;;;54.25;32.85;;;;;;;11.48;100.00;102059.69;2613866;36;20126;-52
2022/04/14 06:45:13;;;;;;;50.30;32.10;;;;;;;11.19;100.00;102059.13;2614524;36;20046;-51
2022/04/14 06:47:44;;;;;;;47.97;30.27;;;;;;;11.29;100.00;102059.31;2613507;36;20041;-53
2022/04/14 06:50:13;;;;;;;44.53;30.30;;;;;;;11.41;100.00;102058.44;2613167;36;20146;-52
2022/04/14 06:52:42;;;;;;;46.58;31.70;;;;;;;11.55;100.00;102058.25;2606224;36;20571;-53
2022/04/14 06:55:11;;;;;;;47.17;31.45;;;;;;;11.74;100.00;102059.59;2614512;36;20122;-50
2022/04/14 06:57:40;;;;;;;43.55;28.73;;;;;;;11.88;100.00;102054.03;2613359;36;20533;-54
2022/04/14 07:00:10;;;;;;;47.20;29.50;;;;;;;12.05;100.00;102049.25;2613813;36;20674;-51
2022/04/14 07:02:49;;;;;;;45.67;28.13;;;;;;;11.82;100.00;102049.13;2613038;36;20122;-51
2022/04/14 07:05:18;;;;;;;41.63;28.23;;;;;;;11.73;100.00;102053.38;2614020;36;20141;-53
2022/04/14 07:07:46;;;;;;;37.60;27.90;;;;;;;12.07;100.00;102060.75;2613454;36;20166;-52
2022/04/14 07:10:15;;;;;;;40.90;27.77;;;;;;;12.10;100.00;102049.72;2613340;36;20182;-55
2022/04/14 07:12:44;;;;;;;44.00;28.85;;;;;;;12.17;100.00;102056.38;2614575;36;20170;-55
2022/04/14 07:15:14;;;;;;;41.33;26.77;;;;;;;12.43;100.00;102067.03;2612945;36;20116;-51
2022/04/14 07:17:42;;;;;;;;;;;;;;;12.65;100.00;102066.22;2614142;36;20168;-51
2022/04/14 07:20:13;;;;;;;41.50;24.70;;;;;;;12.73;100.00;102068.31;2612989;36;20029;-55
2022/04/14 07:22:45;;;;;;;39.58;26.15;;;;;;;12.32;100.00;102075.09;2613415;36;20053;-49
2022/04/14 07:25:14;;;;;;;37.35;23.98;;;;;;;12.48;100.00;102063.97;2612408;36;20030;-51
2022/04/14 07:27:42;;;;;;;35.90;24.02;;;;;;;12.59;100.00;102069.41;2613099;31;20027;-53
2022/04/14 07:30:11;;;;;;;40.33;26.42;;;;;;;12.73;100.00;102073.72;2612792;36;20186;-53
2022/04/14 07:32:43;;;;;;;37.10;24.17;;;;;;;12.71;100.00;102068.44;2612520;36;20046;-50
2022/04/14 07:35:15;;;;;;;37.25;24.15;;;;;;;12.96;100.00;102067.34;2613585;36;20069;-54
2022/04/14 07:37:45;;;;;;;36.72;23.58;;;;;;;13.15;100.00;102068.59;2612805;36;20041;-55
2022/04/14 07:40:13;;;;;;;35.95;25.02;;;;;;;13.16;100.00;102070.28;2613839;36;20038;-51
2022/04/14 07:42:44;;;;;;;37.90;23.92;;;;;;;13.19;100.00;102064.69;2614179;31;20038;-54
2022/04/14 07:45:15;;;;;;;33.60;22.33;;;;;;;13.39;100.00;102078.44;2612990;36;20039;-54
2022/04/14 07:47:44;;;;;;;32.03;21.45;;;;;;;13.55;100.00;102073.50;2614202;36;20042;-55
2022/04/14 07:50:17;;;;;;;32.97;21.65;;;;;;;13.63;100.00;102071.03;2611756;36;20521;-53
2022/04/14 07:52:49;;;;;;;32.65;21.20;;;;;;;13.49;100.00;102074.00;2605770;36;20427;-50
2022/04/14 07:55:23;;;;;;;33.35;21.65;;;;;;;13.77;100.00;102074.44;2606772;36;20150;-53
2022/04/14 07:57:52;;;;;;;37.42;21.83;;;;;;;13.47;100.00;102073.25;2612094;36;20031;-51
2022/04/14 08:00:21;;;;;;;;;;;;;;;13.59;100.00;102074.97;2612946;36;20133;-51
2022/04/14 08:02:55;;;;;;;33.40;20.80;;;;;;;13.62;100.00;102069.31;2613366;31;20420;-53
2022/04/14 08:05:31;;;;;;;33.72;22.10;;;;;;;13.76;100.00;102073.56;2612155;36;20213;-50
2022/04/14 08:08:00;;;;;;;30.20;20.73;;;;;;;13.74;100.00;102072.00;2613112;36;20038;-55
2022/04/14 08:10:28;;;;;;;33.78;20.77;;;;;;;13.69;100.00;102077.75;2613642;36;20074;-50
2022/04/14 08:12:57;;;;;;;32.97;20.67;;;;;;;13.95;100.00;102078.31;2612787;36;20046;-53
2022/04/14 08:15:25;;;;;;;34.58;20.67;;;;;;;14.11;100.00;102077.03;2613741;36;20027;-51
2022/04/14 08:17:53;;;;;;;27.65;18.65;;;;;;;14.34;100.00;102075.94;2612653;31;20039;-57
2022/04/14 08:20:22;;;;;;;29.45;19.25;;;;;;;14.30;100.00;102066.34;2612610;31;20126;-52
2022/04/14 08:22:54;;;;;;;29.52;19.42;;;;;;;13.58;100.00;102069.69;2613217;36;20174;-51
2022/04/14 08:25:24;;;;;;;32.80;20.85;;;;;;;13.75;100.00;102070.97;2613669;36;20643;-52
2022/04/14 08:27:53;;;;;;;27.75;18.83;;;;;;;14.05;100.00;102082.97;2614382;36;20117;-54
2022/04/14 08:30:25;;;;;;;23.55;16.48;;;;;;;14.22;100.00;102082.38;2612046;31;20658;-53
2022/04/14 08:32:55;;;;;;;27.80;17.13;;;;;;;14.42;100.00;102077.97;2614483;36;20691;-56
2022/04/14 08:35:26;;;;;;;29.02;18.65;;;;;;;14.50;100.00;102082.72;2613075;36;20560;-48
2022/04/14 08:37:57;;;;;;;29.33;17.45;;;;;;;14.85;100.00;102071.56;2613601;31;20567;-56
2022/04/14 08:40:30;;;;;;;30.38;16.75;;;;;;;14.70;100.00;102075.63;2612688;36;20073;-52
2022/04/14 08:43:03;;;;;;;28.02;18.38;;;;;;;14.77;100.00;102073.25;2615119;31;20492;-54
2022/04/14 08:45:34;;;;;;;27.48;17.55;;;;;;;14.98;100.00;102065.94;2611952;36;20042;-54
2022/04/14 08:48:03;;;;;;;26.45;16.77;;;;;;;14.82;100.00;102068.28;2614454;36;20122;-55
2022/04/14 08:50:33;;;;;;;26.70;18.42;;;;;;;14.48;100.00;102077.44;2613433;36;20623;-50
2022/04/14 08:53:07;;;;;;;20.58;15.45;;;;;;;14.89;100.00;102066.75;2612176;31;20532;-54
2022/04/14 08:55:36;;;;;;;22.02;15.00;;;;;;;15.14;100.00;102064.59;2606585;36;20064;-56
2022/04/14 08:58:05;;;;;;;21.23;14.70;;;;;;;15.12;100.00;102056.59;2614224;36;20053;-55
2022/04/14 09:00:33;;;;;;;21.83;15.20;;;;;;;15.51;100.00;102055.84;2605784;31;20169;-52
2022/04/14 09:03:02;;;;;;;27.95;15.45;;;;;;;15.45;100.00;102067.25;2611219;36;20130;-51
2022/04/14 09:05:31;;;;;;;23.63;15.20;;;;;;;15.44;100.00;102055.53;2613821;31;20681;-51
2022/04/14 09:07:59;;;;;;;25.52;14.60;;;;;;;15.77;100.00;102054.31;2613706;36;20081;-54
2022/04/14 09:10:30;;;;;;;24.23;14.95;;;;;;;15.53;100.00;102060.16;2614052;36;20487;-53
2022/04/14 09:12:58;;;;;;;21.30;14.73;;;;;;;15.68;100.00;102052.47;2614091;36;20154;-50
2022/04/14 09:15:27;;;;;;;21.65;14.07;;;;;;;15.93;100.00;102050.25;2614719;36;20026;-49
2022/04/14 09:17:56;;;;;;;18.05;11.82;;;;;;;15.54;100.00;102047.44;2612765;36;20042;-51
2022/04/14 09:20:37;;;;;;;20.92;13.70;;;;;;;15.63;100.00;102046.56;2612879;36;20031;-51
2022/04/14 09:23:14;;;;;;;19.85;14.30;;;;;;;15.89;100.00;102059.66;2613389;36;20038;-55
2022/04/14 09:25:46;;;;;;;21.50;13.82;;;;;;;16.04;100.00;102054.66;2614191;36;20030;-54
2022/04/14 09:28:16;;;;;;;18.98;13.00;;;;;;;16.13;100.00;102056.50;2614546;31;20526;-52
2022/04/14 09:31:01;;;;;;;20.73;12.98;;;;;;;16.20;100.00;102062.25;2614795;36;20058;-55
2022/04/14 09:33:30;;;;;;;19.50;12.85;;;;;;;16.14;100.00;102050.09;2613569;36;20034;-54
2022/04/14 09:36:09;;;;;;;23.40;14.35;;;;;;;16.16;100.00;102053.50;2612972;36;20512;-53
2022/04/14 09:38:53;;;;;;;;;;;;;;;16.54;100.00;102053.63;2614849;36;20031;-49
2022/04/14 09:41:38;;;;;;;21.92;12.38;;;;;;;16.67;100.00;102062.31;2614753;36;20070;-52
2022/04/14 09:44:08;;;;;;;23.17;13.68;;;;;;;16.40;100.00;102063.94;2613938;36;20126;-51
2022/04/14 09:46:37;;;;;;;20.10;14.07;;;;;;;16.55;100.00;102066.19;2613913;36;20023;-55
2022/04/14 09:49:10;;;;;;;;;;;;;;;16.89;100.00;102061.13;2614601;36;20042;-53
2022/04/14 09:51:39;;;;;;;16.90;11.30;;;;;;;16.67;100.00;102070.47;2613345;36;20501;-55
2022/04/14 09:54:11;;;;;;;14.82;10.13;;;;;;;16.86;100.00;102080.44;2613225;36;20029;-54
2022/04/14 09:56:45;;;;;;;14.05;9.85;;;;;;;17.07;100.00;102082.97;2615692;36;20042;-52
2022/04/14 09:59:15;;;;;;;14.98;9.95;;;;;;;17.15;100.00;102083.09;2613615;36;20074;-54
2022/04/14 10:01:44;;;;;;;15.55;10.32;;;;;;;17.30;100.00;102082.59;2606270;36;20034;-55
2022/04/14 10:04:31;;;;;;;13.60;9.85;;;;;;;17.16;100.00;102082.06;2607297;31;20567;-50
2022/04/14 10:07:11;;;;;;;17.42;10.45;;;;;;;17.17;100.00;102083.78;2612498;36;20034;-53
2022/04/14 10:09:42;;;;;;;13.15;10.63;;;;;;;17.43;100.00;102088.53;2615051;36;20061;-48
2022/04/14 10:12:32;;;;;;;14.85;11.80;;;;;;;17.61;100.00;102079.56;2614364;36;20126;-54
2022/04/14 10:15:02;;;;;;;19.90;12.05;;;;;;;17.49;100.00;102066.16;2613120;36;20063;-52
2022/04/14 10:17:32;;;;;;;15.60;11.13;;;;;;;17.80;100.00;102067.66;2614520;36;20034;-54
2022/04/14 10:20:01;;;;;;;16.65;11.90;;;;;;;17.99;100.00;102074.88;2614770;36;20125;-54
2022/04/14 10:22:30;;;;;;;17.17;11.30;;;;;;;18.36;100.00;102068.41;2613168;36;20034;-56
2022/04/14 10:24:58;;;;;;;16.70;11.48;;;;;;;17.80;100.00;102059.50;2613519;36;20030;-53
2022/04/14 10:27:28;;;;;;;14.10;10.97;;;;;;;18.16;100.00;102076.72;2613028;36;20047;-52
2022/04/14 10:30:00;;;;;;;14.10;11.30;;;;;;;18.39;100.00;102073.53;2614214;36;20026;-51
2022/04/14 10:32:28;;;;;;;14.23;9.82;;;;;;;18.24;100.00;102072.38;2613368;36;20193;-52
2022/04/14 10:34:59;;;;;;;13.15;9.70;;;;;;;17.94;100.00;102069.03;2613860;36;20154;-53
2022/04/14 10:37:33;;;;;;;13.10;10.65;;;;;;;18.20;100.00;102072.69;2612578;36;20042;-56
2022/04/14 10:40:02;;;;;;;11.50;9.70;;;;;;;18.23;100.00;102081.56;2612159;36;20637;-56
2022/04/14 10:42:32;;;;;;;13.60;10.10;;;;;;;18.28;100.00;102081.94;2614020;31;20039;-54
2022/04/14 10:45:16;;;;;;;;;;;;;;;18.48;100.00;102072.56;2614525;36;20051;-54
2022/04/14 10:47:59;;;;;;;12.88;9.27;;;;;;;18.72;100.00;102079.22;2612898;36;19957;-53
2022/04/14 10:50:30;;;;;;;11.52;9.48;;;;;;;18.29;100.00;102080.94;2612241;36;20063;-54
2022/04/14 10:53:12;;;;;;;12.90;9.45;;;;;;;18.82;100.00;102077.25;2612616;36;20042;-54
2022/04/14 10:55:45;;;;;;;12.38;8.98;;;;;;;19.01;100.00;102061.72;2612448;36;21007;-55
2022/04/14 10:58:46;;;;;;;10.32;8.25;;;;;;;18.86;100.00;102070.50;2614122;36;20573;-53
2022/04/14 11:01:17;;;;;;;11.25;8.98;;;;;;;18.98;100.00;102081.13;2612365;36;20064;-52
2022/04/14 11:03:50;;;;;;;12.80;8.40;;;;;;;18.80;100.00;102083.88;2606152;36;20142;-52
2022/04/14 11:06:51;;;;;;;12.57;8.65;;;;;;;19.01;100.00;102086.25;2605710;36;21573;-52
2022/04/14 11:09:51;;;;;;;11.30;9.38;;;;;;;18.66;100.00;102079.88;2614537;36;20550;-55
2022/04/14 11:12:20;;;;;;;13.82;9.77;;;;;;;18.97;100.00;102082.97;2612552;36;20092;-52
2022/04/14 11:14:51;;;;;;;12.13;9.27;;;;;;;19.27;100.00;102083.47;2613374;31;20149;-54
2022/04/14 11:17:52;;;;;;;13.25;8.75;;;;;;;19.62;100.00;102084.28;2613738;36;20042;-55
2022/04/14 11:20:57;;;;;;;15.77;10.13;;;;;;;18.72;100.00;102071.88;2612812;36;20034;-54